Time;durP1;ratioP1;P1;durP2;ratioP2;P2;SDS_P1;SDS_P2;PMS_P1;PMS_P2;Temp;Humidity;BMP_temperature;BMP_pressure;BME280_temperature;BME280_humidity;BME280_pressure;Samples;Min_cycle;Max_cycle;Signal;HPM_P1;HPM_P2
2022/10/02 00:00:35;;;;;;;0.10;0.10;;;13.20;99.90;;;13.30;100.00;101042.91;4858852;29;20534;-83
2022/10/02 00:03:17;;;;;;;0.00;0.00;;;13.20;99.90;;;13.29;100.00;101042.88;4858029;29;20217;-83
2022/10/02 00:05:56;;;;;;;0.00;0.00;;;13.20;99.90;;;13.36;100.00;101058.00;4858722;29;20245;-84
2022/10/02 00:08:34;;;;;;;0.03;0.03;;;13.20;99.90;;;13.40;100.00;101042.09;4858993;29;20204;-84
2022/10/02 00:11:26;;;;;;;0.10;0.10;;;13.30;99.90;;;13.53;100.00;101055.47;4839842;29;20229;-83
2022/10/02 00:14:02;;;;;;;0.00;0.00;;;13.40;99.90;;;13.49;100.00;101043.91;4856802;29;20210;-84
2022/10/02 00:16:41;;;;;;;0.00;0.00;;;13.40;99.90;;;13.45;100.00;101044.78;4861484;29;20240;-84
2022/10/02 00:19:11;;;;;;;0.10;0.10;;;13.40;99.90;;;13.44;100.00;101049.19;4856666;29;20251;-83
2022/10/02 00:22:31;;;;;;;0.00;0.00;;;13.40;99.90;;;13.42;100.00;101039.44;4857873;29;20566;-83
2022/10/02 00:25:23;;;;;;;0.00;0.00;;;13.40;99.90;;;13.47;100.00;101050.09;4858048;29;20229;-83
2022/10/02 00:27:51;;;;;;;0.08;0.08;;;13.40;99.90;;;13.45;100.00;101047.44;4858949;29;20214;-83
2022/10/02 00:30:19;;;;;;;0.10;0.10;;;13.40;99.90;;;13.50;100.00;101047.47;4863758;29;20224;-83
2022/10/02 00:33:05;;;;;;;0.00;0.00;;;13.40;99.90;;;13.44;100.00;101046.53;4855310;29;20253;-83
2022/10/02 00:35:59;;;;;;;0.10;0.10;;;13.40;99.90;;;13.48;100.00;101050.13;4853994;29;20252;-83
2022/10/02 00:39:21;;;;;;;0.00;0.00;;;13.40;99.90;;;13.43;100.00;101050.09;4857121;29;20213;-84
2022/10/02 00:42:13;;;;;;;0.10;0.10;;;13.40;99.90;;;13.38;100.00;101043.84;4845067;29;20213;-83
2022/10/02 00:45:04;;;;;;;0.00;0.00;;;13.30;99.90;;;13.43;100.00;101052.75;4860502;29;20237;-85
2022/10/02 00:47:38;;;;;;;0.00;0.00;;;13.30;99.90;;;13.37;100.00;101044.72;4856330;29;20213;-83
2022/10/02 00:50:50;;;;;;;0.00;0.00;;;13.30;99.90;;;13.37;100.00;101038.53;4866363;29;20217;-85
2022/10/02 00:53:35;;;;;;;0.00;0.00;;;13.30;99.90;;;13.36;100.00;101047.38;4874882;29;20224;-83
2022/10/02 00:56:32;;;;;;;0.00;0.00;;;13.30;99.90;;;13.39;100.00;101035.00;4869067;29;20228;-83
2022/10/02 00:59:15;;;;;;;0.00;0.00;;;13.30;99.90;;;13.44;100.00;101058.94;4850353;29;20597;-83
2022/10/02 01:02:21;;;;;;;0.00;0.00;;;13.40;99.90;;;13.34;100.00;101055.31;4856994;29;20205;-83
2022/10/02 01:04:49;;;;;;;0.35;0.30;;;13.30;99.90;;;13.30;100.00;101063.25;4872607;29;20235;-83
2022/10/02 01:07:18;;;;;;;0.00;0.00;;;13.20;99.90;;;13.25;100.00;101072.97;4865620;29;20225;-83
2022/10/02 01:09:46;;;;;;;0.00;0.00;;;13.10;99.90;;;13.25;100.00;101054.38;4874404;29;20209;-84
2022/10/02 01:12:14;;;;;;;0.00;0.00;;;13.20;99.90;;;13.22;100.00;101060.53;4857676;29;20214;-83
2022/10/02 01:14:42;;;;;;;0.00;0.00;;;13.20;99.90;;;13.19;100.00;101049.00;4862014;29;20229;-84
2022/10/02 01:17:29;;;;;;;0.10;0.10;;;13.10;99.90;;;13.18;100.00;101068.47;4852860;29;20217;-83
2022/10/02 01:20:00;;;;;;;0.00;0.00;;;13.10;99.90;;;13.17;100.00;101080.88;4857028;29;20249;-83
2022/10/02 01:22:58;;;;;;;0.00;0.00;;;13.10;99.90;;;13.16;100.00;101081.69;4848632;29;20209;-83
2022/10/02 01:25:25;;;;;;;0.10;0.10;;;13.00;99.90;;;13.14;100.00;101080.81;4853603;29;20237;-83
2022/10/02 01:27:53;;;;;;;0.00;0.00;;;13.10;99.90;;;13.12;100.00;101090.53;4866632;29;20227;-84
2022/10/02 01:30:21;;;;;;;0.00;0.00;;;13.00;99.90;;;13.11;100.00;101099.38;4877735;29;20669;-83
2022/10/02 01:32:57;;;;;;;0.00;0.00;;;13.00;99.90;;;13.07;100.00;101108.19;4866707;29;20229;-84
2022/10/02 01:35:32;;;;;;;0.00;0.00;;;13.00;99.90;;;13.08;100.00;101120.56;4868378;29;20240;-84
2022/10/02 01:38:06;;;;;;;0.15;0.15;;;13.00;99.90;;;13.04;100.00;101117.00;4873698;29;20212;-83
2022/10/02 01:40:38;;;;;;;0.00;0.00;;;13.00;99.90;;;13.00;100.00;101117.84;4850101;29;20229;-83
2022/10/02 01:43:25;;;;;;;0.00;0.00;;;13.00;99.90;;;13.01;100.00;101124.06;4864162;29;20260;-84
2022/10/02 01:46:14;;;;;;;0.00;0.00;;;12.90;99.90;;;13.05;100.00;101131.16;4860523;29;20248;-83
2022/10/02 01:49:20;;;;;;;0.00;0.00;;;12.90;99.90;;;13.03;100.00;101124.97;4869758;29;20204;-84
2022/10/02 01:52:09;;;;;;;0.10;0.10;;;13.00;99.90;;;13.06;100.00;101141.81;4845243;29;20210;-83
2022/10/02 01:55:06;;;;;;;0.00;0.00;;;13.00;99.90;;;13.03;100.00;101147.09;4868794;29;20208;-83
2022/10/02 01:57:49;;;;;;;0.10;0.10;;;13.00;99.90;;;13.04;100.00;101148.88;4866215;29;20205;-84
2022/10/02 02:00:24;;;;;;;0.00;0.00;;;13.00;99.90;;;13.02;100.00;101149.72;4845173;29;20241;-84
2022/10/02 02:03:15;;;;;;;0.00;0.00;;;12.90;99.90;;;13.05;100.00;101166.59;4873491;29;20220;-84
2022/10/02 02:05:53;;;;;;;0.10;0.10;;;13.00;99.90;;;13.07;100.00;101166.59;4852416;29;20573;-83
2022/10/02 02:08:36;;;;;;;0.00;0.00;;;13.00;99.90;;;13.06;100.00;101171.03;4877185;29;20220;-83
2022/10/02 02:11:15;;;;;;;0.00;0.00;;;13.00;99.90;;;13.08;100.00;101163.06;4850820;29;20212;-83
2022/10/02 02:14:04;;;;;;;0.00;0.00;;;13.00;99.90;;;13.10;100.00;101166.63;4856760;29;20225;-83
2022/10/02 02:16:35;;;;;;;0.10;0.10;;;13.00;99.90;;;13.13;100.00;101169.31;4864308;29;20229;-83
2022/10/02 02:19:16;;;;;;;0.40;0.40;;;13.10;99.90;;;13.18;100.00;101169.41;4865782;29;20667;-84
2022/10/02 02:21:54;;;;;;;0.10;0.10;;;13.10;99.90;;;13.25;100.00;101171.25;4868144;29;20224;-83
2022/10/02 02:24:53;;;;;;;0.10;0.10;;;13.20;99.90;;;13.22;100.00;101161.47;4863300;29;20617;-83
2022/10/02 02:27:25;;;;;;;0.32;0.32;;;13.10;99.90;;;13.25;100.00;101158.84;4867610;29;20654;-83
2022/10/02 02:30:00;;;;;;;0.00;0.00;;;13.20;99.90;;;13.27;100.00;101156.22;4878377;29;20222;-84
2022/10/02 02:32:34;;;;;;;0.10;0.10;;;13.20;99.90;;;13.29;100.00;101146.47;4868935;29;20260;-84
2022/10/02 02:35:16;;;;;;;0.00;0.00;;;13.30;99.90;;;13.26;100.00;101138.50;4865506;29;20297;-83
2022/10/02 02:37:45;;;;;;;0.00;0.00;;;13.20;99.90;;;13.29;100.00;101127.88;4859472;29;20229;-84
2022/10/02 02:40:19;;;;;;;0.00;0.00;;;13.20;99.90;;;13.28;100.00;101131.41;4862188;29;20267;-84
2022/10/02 02:43:11;;;;;;;0.10;0.10;;;13.20;99.90;;;13.32;100.00;101133.22;4858460;29;20208;-83
2022/10/02 02:45:54;;;;;;;0.10;0.10;;;13.20;99.90;;;13.34;100.00;101132.38;4853509;29;20229;-83
2022/10/02 02:48:30;;;;;;;0.00;0.00;;;13.30;99.90;;;13.37;100.00;101129.75;4854339;29;20224;-84
2022/10/02 02:51:06;;;;;;;0.05;0.05;;;13.30;99.90;;;13.39;100.00;101122.66;4854753;29;20217;-83
2022/10/02 02:53:50;;;;;;;0.00;0.00;;;13.30;99.90;;;13.38;100.00;101110.25;4856574;29;20303;-83
2022/10/02 02:56:20;;;;;;;0.10;0.10;;;13.30;99.90;;;13.41;100.00;101120.91;4857025;29;20268;-83
2022/10/02 02:59:05;;;;;;;0.00;0.00;;;13.30;99.90;;;13.45;100.00;101105.88;4855909;29;20221;-83
2022/10/02 03:01:33;;;;;;;0.00;0.00;;;13.30;99.90;;;13.44;100.00;101112.97;4858352;29;20233;-82
2022/10/02 03:04:01;;;;;;;0.10;0.10;;;13.40;99.90;;;13.46;100.00;101110.31;4855265;29;20202;-82
2022/10/02 03:06:39;;;;;;;0.00;0.00;;;13.40;99.90;;;13.45;100.00;101100.56;4858215;29;20237;-82
2022/10/02 03:09:15;;;;;;;0.00;0.00;;;13.40;99.90;;;13.47;100.00;101106.78;4858381;29;20212;-82
2022/10/02 03:11:54;;;;;;;0.30;0.30;;;13.40;99.90;;;13.46;100.00;101107.66;4851207;29;20216;-82
2022/10/02 03:14:40;;;;;;;0.00;0.00;;;13.40;99.90;;;13.45;100.00;101101.47;4857208;29;20221;-82
2022/10/02 03:18:02;;;;;;;0.00;0.00;;;13.40;99.90;;;13.48;100.00;101102.38;4854793;29;20216;-82
2022/10/02 03:20:46;;;;;;;0.00;0.00;;;13.40;99.90;;;13.44;100.00;101104.09;4843638;29;20225;-82
2022/10/02 03:23:48;;;;;;;0.10;0.10;;;13.40;99.90;;;13.43;100.00;101110.31;4840565;29;20218;-82
2022/10/02 03:26:34;;;;;;;0.00;0.00;;;13.40;99.90;;;13.40;100.00;101102.31;4842565;29;20249;-82
2022/10/02 03:29:09;;;;;;;0.00;0.00;;;13.30;99.90;;;13.40;100.00;101099.66;4856866;29;20222;-82
2022/10/02 03:31:39;;;;;;;0.00;0.00;;;13.40;99.90;;;13.39;100.00;101108.50;4844005;29;20201;-82
2022/10/02 03:34:07;;;;;;;0.00;0.00;;;13.30;99.90;;;13.38;100.00;101096.09;4856594;29;20229;-82
2022/10/02 03:36:36;;;;;;;0.00;0.00;;;13.30;99.90;;;13.38;100.00;101104.94;4845127;29;20233;-82
2022/10/02 03:39:06;;;;;;;0.05;0.05;;;13.30;99.90;;;13.37;100.00;101110.25;4855286;29;20301;-82
2022/10/02 03:41:54;;;;;;;0.00;0.00;;;13.30;99.90;;;13.35;100.00;101104.03;4862574;29;20253;-83
2022/10/02 03:44:22;;;;;;;0.10;0.10;;;13.30;99.90;;;13.37;100.00;101112.91;4865505;29;20220;-82
2022/10/02 03:46:50;;;;;;;0.10;0.10;;;13.30;99.90;;;13.37;100.00;101112.91;4873817;29;20210;-82
2022/10/02 03:49:18;;;;;;;0.00;0.00;;;13.30;99.90;;;13.36;100.00;101120.00;4876760;29;20212;-82
2022/10/02 03:51:46;;;;;;;0.00;0.00;;;13.30;99.90;;;13.35;100.00;101117.31;4862863;29;20213;-82
2022/10/02 03:54:19;;;;;;;0.10;0.10;;;13.30;99.90;;;13.34;100.00;101116.44;4857269;29;20228;-83
2022/10/02 03:57:03;;;;;;;0.00;0.00;;;13.30;99.90;;;13.35;100.00;101122.63;4857934;29;20256;-82
2022/10/02 04:00:06;;;;;;;0.00;0.00;;;13.30;99.90;;;13.34;100.00;101119.09;4857687;29;20218;-82
2022/10/02 04:02:49;;;;;;;0.00;0.00;;;13.30;99.90;;;13.33;100.00;101127.94;4855161;29;20669;-82
2022/10/02 04:05:34;;;;;;;0.10;0.10;;;13.30;99.90;;;13.31;100.00;101123.47;4850895;29;20237;-82
2022/10/02 04:08:13;;;;;;;0.00;0.00;;;13.30;99.90;;;13.28;100.00;101131.41;4837260;29;20205;-82
2022/10/02 04:10:59;;;;;;;0.28;0.20;;;13.20;99.90;;;13.24;100.00;101130.50;4857216;29;20228;-82
2022/10/02 04:13:39;;;;;;;0.32;0.32;;;13.20;99.90;;;13.23;100.00;101143.78;4872667;29;20220;-82
2022/10/02 04:16:29;;;;;;;0.00;0.00;;;13.20;99.90;;;13.20;100.00;101149.06;4870944;29;20233;-82
2022/10/02 04:19:25;;;;;;;0.00;0.00;;;13.10;99.90;;;13.17;100.00;101157.88;4856416;29;20220;-84
2022/10/02 04:22:07;;;;;;;0.00;0.00;;;13.10;99.90;;;13.17;100.00;101165.84;4853773;29;20241;-83
2022/10/02 04:24:44;;;;;;;0.00;0.00;;;13.10;99.90;;;13.17;100.00;101175.59;4856679;29;20213;-84
2022/10/02 04:27:17;;;;;;;0.00;0.00;;;13.10;99.90;;;13.15;100.00;101172.88;4867717;29;20221;-83
2022/10/02 04:29:54;;;;;;;0.10;0.10;;;13.10;99.90;;;13.12;100.00;101170.19;4857944;29;20582;-83
2022/10/02 04:32:26;;;;;;;0.00;0.00;;;13.10;99.90;;;13.13;100.00;101171.97;4860292;29;20219;-82
2022/10/02 04:34:54;;;;;;;0.10;0.10;;;13.10;99.90;;;13.08;100.00;101173.69;4856956;29;20229;-82
2022/10/02 04:38:02;;;;;;;0.13;0.13;;;13.00;99.90;;;13.09;100.00;101175.47;4856084;29;20671;-83
2022/10/02 04:40:57;;;;;;;0.10;0.10;;;13.00;99.90;;;13.11;100.00;101185.22;4855540;29;20229;-83
2022/10/02 04:43:31;;;;;;;0.00;0.00;;;13.10;99.90;;;13.10;100.00;101180.81;4845525;29;20218;-83
2022/10/02 04:46:45;;;;;;;0.10;0.10;;;13.10;99.90;;;13.05;100.00;101179.84;4857717;29;20233;-84
2022/10/02 04:49:40;;;;;;;0.10;0.10;;;13.00;99.90;;;13.02;100.00;101181.59;4870052;29;20213;-83
2022/10/02 04:52:31;;;;;;;0.10;0.10;;;13.00;99.90;;;13.01;100.00;101187.78;4857205;29;20213;-82
2022/10/02 04:55:27;;;;;;;0.20;0.20;;;13.00;99.90;;;13.04;100.00;101187.81;4860322;29;20237;-83
2022/10/02 04:58:25;;;;;;;0.10;0.10;;;13.00;99.90;;;13.07;100.00;101196.69;4859657;29;20225;-82
2022/10/02 05:01:11;;;;;;;0.10;0.10;;;13.00;99.90;;;13.05;100.00;101190.47;4858716;29;20252;-83
2022/10/02 05:03:57;;;;;;;0.00;0.00;;;13.00;99.90;;;13.06;100.00;101192.25;4869275;29;20221;-81
2022/10/02 05:06:59;;;;;;;0.10;0.10;;;13.00;99.90;;;13.05;100.00;101192.25;4866705;29;20243;-80
2022/10/02 05:09:52;;;;;;;0.00;0.00;;;13.00;99.90;;;13.05;100.00;101187.81;4842130;29;20217;-82
2022/10/02 05:12:42;;;;;;;0.00;0.00;;;13.00;99.90;;;13.07;100.00;101187.84;4855760;29;20670;-80
2022/10/02 05:15:28;;;;;;;0.10;0.10;;;13.00;99.90;;;13.03;100.00;101183.38;4860860;29;20230;-83
2022/10/02 05:17:58;;;;;;;0.00;0.00;;;13.00;99.90;;;12.99;100.00;101174.44;4860551;29;20224;-82
2022/10/02 05:20:55;;;;;;;0.10;0.10;;;12.90;99.90;;;13.01;100.00;101172.72;4855351;29;20225;-80
2022/10/02 05:24:05;;;;;;;0.00;0.00;;;13.00;99.90;;;13.03;100.00;101167.44;4851042;29;20216;-82
2022/10/02 05:27:01;;;;;;;0.00;0.00;;;13.00;99.90;;;13.01;100.00;101156.81;4871540;29;20244;-82
2022/10/02 05:29:58;;;;;;;0.00;0.00;;;12.90;99.90;;;12.97;100.00;101152.31;4855474;29;20205;-81
2022/10/02 05:33:00;;;;;;;0.05;0.05;;;12.90;99.90;;;13.00;100.00;101141.75;4852504;29;20657;-81
2022/10/02 05:35:51;;;;;;;0.10;0.10;;;13.00;99.90;;;13.01;100.00;101142.63;4847531;29;20243;-81
2022/10/02 05:38:49;;;;;;;0.00;0.00;;;13.00;99.90;;;13.00;100.00;101143.47;4861716;29;20213;-81
2022/10/02 05:41:41;;;;;;;0.08;0.08;;;12.90;99.90;;;12.99;100.00;101142.59;4853532;29;20300;-82
2022/10/02 05:44:24;;;;;;;0.00;0.00;;;12.90;99.90;;;13.01;100.00;101137.31;4866111;29;20206;-81
2022/10/02 05:47:06;;;;;;;0.00;0.00;;;13.00;99.90;;;13.02;100.00;101137.34;4869201;29;20627;-82
2022/10/02 05:49:45;;;;;;;0.10;0.10;;;13.00;99.90;;;13.04;100.00;101140.00;4869308;29;20209;-81
2022/10/02 05:52:23;;;;;;;0.00;0.00;;;13.00;99.90;;;13.04;100.00;101140.00;4841508;29;20224;-82
2022/10/02 05:55:11;;;;;;;0.00;0.00;;;12.90;99.90;;;13.01;100.00;101140.88;4834741;29;20233;-81
2022/10/02 05:57:46;;;;;;;0.10;0.10;;;12.90;99.90;;;12.98;100.00;101148.78;4856702;29;20214;-82
2022/10/02 06:00:46;;;;;;;0.00;0.00;;;12.90;99.90;;;12.98;100.00;101150.53;4866853;29;20225;-83
2022/10/02 06:03:49;;;;;;;0.22;0.22;;;12.90;99.90;;;12.94;100.00;101162.00;4861573;29;20217;-82
2022/10/02 06:06:27;;;;;;;0.00;0.00;;;12.90;99.90;;;12.91;100.00;101168.16;4846471;29;20698;-84
2022/10/02 06:09:04;;;;;;;0.00;0.00;;;12.90;99.90;;;12.89;100.00;101175.22;4856613;29;20221;-83
2022/10/02 06:11:59;;;;;;;0.00;0.00;;;12.80;99.90;;;12.87;100.00;101176.06;4855117;29;20217;-85
2022/10/02 06:14:39;;;;;;;0.10;0.10;;;12.80;99.90;;;12.87;100.00;101189.34;4864961;29;20324;-83
2022/10/02 06:17:33;;;;;;;0.00;0.00;;;12.80;99.90;;;12.87;100.00;101203.50;4860268;29;20212;-85
2022/10/02 06:20:13;;;;;;;0.00;0.00;;;12.80;99.90;;;12.85;100.00;101197.28;4839734;29;20206;-85
2022/10/02 06:23:13;;;;;;;0.00;0.00;;;12.80;99.90;;;12.88;100.00;101207.06;4854554;29;20233;-84
2022/10/02 06:25:50;;;;;;;0.00;0.00;;;12.80;99.90;;;12.88;100.00;101221.22;4856465;29;20232;-81
2022/10/02 06:28:49;;;;;;;0.10;0.10;;;12.80;99.90;;;12.89;100.00;101222.13;4859619;29;20220;-82
2022/10/02 06:31:29;;;;;;;0.00;0.00;;;12.80;99.90;;;12.88;100.00;101231.84;4851325;29;20225;-85
2022/10/02 06:33:57;;;;;;;0.00;0.00;;;12.80;99.90;;;12.88;100.00;101226.53;4860438;29;20205;-81
2022/10/02 06:36:48;;;;;;;0.10;0.10;;;12.80;99.90;;;12.88;100.00;101233.59;4855369;29;20248;-82
2022/10/02 06:39:44;;;;;;;0.10;0.10;;;12.80;99.90;;;12.88;100.00;101230.94;4852691;29;20210;-85
2022/10/02 06:42:58;;;;;;;0.00;0.00;;;12.80;99.90;;;12.87;100.00;101242.44;4861479;29;20225;-85
2022/10/02 06:45:57;;;;;;;0.00;0.00;;;12.80;99.90;;;12.86;100.00;101245.97;4855131;29;20749;-87
2022/10/02 06:49:13;;;;;;;0.17;0.17;;;12.80;99.90;;;12.87;100.00;101255.72;4861310;29;20216;-84
2022/10/02 06:51:55;;;;;;;0.10;0.10;;;12.80;99.90;;;12.86;100.00;101257.47;4863282;29;20210;-83
2022/10/02 06:54:54;;;;;;;0.10;0.10;;;12.80;99.90;;;12.85;100.00;101261.00;4854917;29;20233;-83
2022/10/02 06:58:06;;;;;;;0.10;0.10;;;12.80;99.90;;;12.84;100.00;101269.84;4856761;29;20514;-83
2022/10/02 07:01:18;;;;;;;0.10;0.10;;;12.80;99.90;;;12.85;100.00;101268.97;4853027;29;20217;-81
2022/10/02 07:03:58;;;;;;;0.10;0.10;;;12.80;99.90;;;12.87;100.00;101267.22;4838086;29;20209;-83
2022/10/02 07:06:43;;;;;;;0.10;0.10;;;12.80;99.90;;;12.87;100.00;101267.22;4862507;29;20233;-82
2022/10/02 07:09:29;;;;;;;0.00;0.00;;;12.80;99.90;;;12.91;100.00;101281.44;4870821;29;20212;-81
2022/10/02 07:12:03;;;;;;;0.00;0.00;;;12.80;99.90;;;12.90;100.00;101291.16;4854561;29;20213;-81
2022/10/02 07:15:16;;;;;;;0.00;0.00;;;12.80;99.90;;;12.90;100.00;101277.88;4857376;29;20218;-80
2022/10/02 07:18:14;;;;;;;0.00;0.00;;;12.80;99.90;;;12.92;100.00;101289.41;4856206;29;20205;-79
2022/10/02 07:21:06;;;;;;;0.00;0.00;;;12.90;99.90;;;12.91;100.00;101289.41;4860259;29;20212;-80
2022/10/02 07:24:26;;;;;;;0.10;0.10;;;12.90;99.90;;;12.94;100.00;101290.31;4860640;29;20237;-80
2022/10/02 07:28:09;;;;;;;0.00;0.00;;;12.90;99.90;;;12.92;100.00;101297.38;4835186;29;20221;-80
2022/10/02 07:31:06;;;;;;;0.00;0.00;;;12.90;99.90;;;12.90;100.00;101304.44;4838950;29;20216;-80
2022/10/02 07:33:52;;;;;;;0.00;0.00;;;12.80;99.90;;;12.90;100.00;101299.13;4840584;29;20218;-82
2022/10/02 07:36:48;;;;;;;0.10;0.10;;;12.80;99.90;;;12.92;100.00;101310.66;4875277;29;20245;-81
2022/10/02 07:39:27;;;;;;;0.10;0.10;;;12.90;99.90;;;12.92;100.00;101310.66;4843438;29;20209;-83
2022/10/02 07:42:14;;;;;;;0.00;0.00;;;12.80;99.90;;;12.94;100.00;101321.28;4860199;29;20237;-80
2022/10/02 07:44:57;;;;;;;0.00;0.00;;;12.90;99.90;;;12.95;100.00;101326.63;4855889;29;20225;-78
2022/10/02 07:48:00;;;;;;;0.00;0.00;;;12.90;99.90;;;12.94;100.00;101337.22;4857283;29;20216;-80
2022/10/02 07:50:55;;;;;;;0.00;0.00;;;12.80;99.90;;;12.95;100.00;101344.31;4875495;29;20221;-78
2022/10/02 07:53:48;;;;;;;0.80;0.40;;;12.90;99.90;;;13.00;100.00;101354.16;4858383;29;20209;-78
2022/10/02 07:56:21;;;;;;;0.00;0.00;;;12.90;99.90;;;13.00;100.00;101356.81;4857744;29;20228;-79
2022/10/02 07:58:57;;;;;;;0.00;0.00;;;13.00;99.90;;;13.00;100.00;101364.78;4867924;29;20221;-78
2022/10/02 08:01:35;;;;;;;0.00;0.00;;;12.90;99.90;;;12.99;100.00;101370.03;4842755;29;20229;-78
2022/10/02 08:04:29;;;;;;;0.00;0.00;;;13.00;99.90;;;13.05;100.00;101379.03;4855164;29;20219;-78
2022/10/02 08:07:05;;;;;;;0.00;0.00;;;12.90;99.90;;;13.08;100.00;101380.81;4845972;29;20216;-79
2022/10/02 08:09:39;;;;;;;0.00;0.00;;;13.00;99.90;;;13.09;100.00;101382.63;4854009;29;20216;-78
2022/10/02 08:12:39;;;;;;;0.05;0.05;;;13.00;99.90;;;13.05;100.00;101373.72;4845551;29;20217;-78
2022/10/02 08:15:18;;;;;;;0.00;0.00;;;13.00;99.90;;;13.07;100.00;101376.38;4859633;29;20225;-78
2022/10/02 08:18:05;;;;;;;0.00;0.00;;;13.00;99.90;;;13.10;100.00;101368.47;4860102;29;20216;-80
2022/10/02 08:20:56;;;;;;;0.00;0.00;;;13.00;99.90;;;13.12;100.00;101364.06;4850171;29;20225;-80
2022/10/02 08:23:36;;;;;;;0.40;0.40;;;13.10;99.90;;;13.08;100.00;101370.19;4851208;29;20230;-78
2022/10/02 08:26:51;;;;;;;0.00;0.00;;;13.00;99.90;;;13.08;100.00;101373.75;4851938;29;20251;-79
2022/10/02 08:29:41;;;;;;;0.00;0.00;;;13.00;99.90;;;13.13;100.00;101377.38;4828492;29;20228;-78
2022/10/02 08:32:10;;;;;;;0.00;0.00;;;13.10;99.90;;;13.12;100.00;101374.69;4871507;29;20209;-79
2022/10/02 08:34:40;;;;;;;0.03;0.03;;;13.00;99.90;;;13.14;100.00;101379.16;4853622;29;20240;-79
2022/10/02 08:37:32;;;;;;;0.10;0.10;;;13.10;99.90;;;13.17;100.00;101369.47;4846403;29;20206;-79
2022/10/02 08:40:50;;;;;;;0.10;0.10;;;13.10;99.90;;;13.15;100.00;101382.69;4847733;29;20218;-79
2022/10/02 08:43:21;;;;;;;0.00;0.00;;;13.10;99.90;;;13.13;100.00;101371.16;4850319;29;20225;-79
2022/10/02 08:46:46;;;;;;;0.08;0.08;;;13.10;99.90;;;13.21;100.00;101369.53;4842896;29;20240;-79
2022/10/02 08:49:57;;;;;;;0.00;0.00;;;13.10;99.90;;;13.29;100.00;101374.94;4837024;29;20309;-79
2022/10/02 08:52:57;;;;;;;0.00;0.00;;;13.20;99.90;;;13.28;100.00;101367.84;4857575;29;20205;-78
2022/10/02 08:55:57;;;;;;;0.00;0.00;;;13.20;99.90;;;13.38;100.00;101372.41;4842479;29;20248;-78
2022/10/02 08:59:17;;;;;;;0.00;0.00;;;13.30;99.90;;;13.38;100.00;101383.91;4852248;29;20220;-79
2022/10/02 09:02:10;;;;;;;0.00;0.00;;;13.30;99.90;;;13.38;100.00;101380.38;4851476;29;20201;-78
2022/10/02 09:05:22;;;;;;;0.10;0.10;;;13.30;99.90;;;13.34;100.00;101387.41;4846946;29;20218;-79
2022/10/02 09:07:55;;;;;;;0.10;0.10;;;13.30;99.90;;;13.26;100.00;101378.44;4856772;29;20217;-79
2022/10/02 09:10:47;;;;;;;0.00;0.00;;;13.30;99.90;;;13.34;100.00;101387.41;4854491;29;20219;-79
2022/10/02 09:13:55;;;;;;;0.10;0.10;;;13.30;99.90;;;13.32;100.00;101393.56;4850961;29;20300;-78
2022/10/02 09:16:43;;;;;;;0.00;0.00;;;13.30;99.90;;;13.44;100.00;101391.97;4858915;29;20237;-78
2022/10/02 09:19:23;;;;;;;0.00;0.00;;;13.30;99.90;;;13.47;100.00;101380.50;4870605;29;20212;-78
2022/10/02 09:22:36;;;;;;;0.00;0.00;;;13.40;99.90;;;13.48;100.00;101392.00;4856025;29;20217;-78
2022/10/02 09:25:36;;;;;;;0.00;0.00;;;13.40;99.90;;;13.54;100.00;101395.63;4842799;29;20240;-79
2022/10/02 09:28:47;;;;;;;0.00;0.00;;;13.40;99.90;;;13.39;100.00;101393.69;4852859;29;20229;-79
2022/10/02 09:31:30;;;;;;;0.10;0.10;;;13.40;99.90;;;13.47;100.00;101403.50;4856544;29;20217;-80
2022/10/02 09:34:20;;;;;;;0.00;0.00;;;13.40;99.90;;;13.43;100.00;101390.19;4854229;29;20217;-79
2022/10/02 09:37:03;;;;;;;0.00;0.00;;;13.40;99.90;;;13.48;100.00;101387.59;4858051;29;20213;-80
2022/10/02 09:40:31;;;;;;;0.00;0.00;;;13.40;99.90;;;13.55;100.00;101381.47;4857145;29;20549;-79
2022/10/02 09:43:07;;;;;;;0.00;0.00;;;13.50;99.90;;;13.49;100.00;101376.09;4856634;29;20240;-80
2022/10/02 09:46:18;;;;;;;0.00;0.00;;;13.50;99.90;;;13.52;100.00;101384.09;4858240;29;20243;-80
2022/10/02 09:49:10;;;;;;;0.00;0.00;;;13.40;99.90;;;13.49;100.00;101394.69;4855435;29;20228;-81
2022/10/02 09:52:17;;;;;;;0.00;0.00;;;13.40;99.90;;;13.58;100.00;101399.22;4856868;29;20224;-81
2022/10/02 09:55:15;;;;;;;0.00;0.00;;;13.50;99.90;;;13.60;100.00;101403.69;4856631;29;20240;-81
2022/10/02 09:58:15;;;;;;;0.00;0.00;;;13.50;99.90;;;13.66;100.00;101393.13;4866466;29;20221;-80
2022/10/02 10:01:19;;;;;;;0.00;0.00;;;13.50;99.90;;;13.60;100.00;101409.00;4855326;29;20221;-81
2022/10/02 10:04:35;;;;;;;0.00;0.00;;;13.60;99.90;;;13.57;100.00;101410.72;4855860;29;20229;-79
2022/10/02 10:08:06;;;;;;;0.08;0.05;;;13.50;99.90;;;13.61;100.00;101413.44;4814938;29;20217;-80
2022/10/02 10:10:50;;;;;;;0.00;0.00;;;13.50;99.90;;;13.62;100.00;101422.31;4870445;29;20217;-79
2022/10/02 10:14:02;;;;;;;0.00;0.00;;;13.60;99.90;;;13.72;100.00;101427.75;4852712;29;20212;-79
2022/10/02 10:16:52;;;;;;;0.00;0.00;;;13.60;99.90;;;13.72;100.00;101426.84;4854922;29;20232;-80
2022/10/02 10:20:11;;;;;;;0.03;0.03;;;13.70;99.90;;;13.66;100.00;101418.81;4855575;29;20550;-79
2022/10/02 10:23:19;;;;;;;0.00;0.00;;;13.60;99.90;;;13.64;100.00;101418.78;4847129;29;20206;-79
2022/10/02 10:26:27;;;;;;;0.35;0.30;;;13.60;99.90;;;13.72;100.00;101414.47;4846874;29;20236;-78
2022/10/02 10:29:27;;;;;;;0.10;0.10;;;13.60;99.90;;;13.75;100.00;101416.25;4861348;29;20221;-79
2022/10/02 10:32:50;;;;;;;0.00;0.00;;;13.60;99.90;;;13.86;100.00;101421.69;4848094;29;20220;-79
2022/10/02 10:35:42;;;;;;;0.00;0.00;;;13.70;99.90;;;13.90;100.00;101416.44;4850762;29;20245;-79
2022/10/02 10:38:40;;;;;;;0.00;0.00;;;13.80;99.90;;;13.98;100.00;101422.72;4838427;29;20214;-78
2022/10/02 10:42:17;;;;;;;0.10;0.10;;;13.90;99.90;;;14.01;100.00;101425.41;4842712;29;20210;-79
2022/10/02 10:45:21;;;;;;;0.00;0.00;;;13.90;99.90;;;14.04;100.00;101429.88;4819694;29;20257;-78
2022/10/02 10:48:07;;;;;;;0.20;0.20;;;14.00;99.90;;;14.04;100.00;101433.44;4847169;29;20204;-79
2022/10/02 10:51:15;;;;;;;0.00;0.00;;;14.00;99.90;;;14.12;100.00;101432.63;4851156;29;20225;-79
2022/10/02 10:54:47;;;;;;;0.08;0.08;;;14.00;99.90;;;14.12;100.00;101428.19;4845282;29;20599;-79
2022/10/02 10:57:47;;;;;;;0.13;0.13;;;14.10;99.90;;;14.06;100.00;101423.69;4820452;29;20228;-78
2022/10/02 11:00:50;;;;;;;0.20;0.20;;;14.00;99.90;;;13.99;100.00;101415.63;4839316;29;20221;-79
2022/10/02 11:03:36;;;;;;;0.00;0.00;;;13.90;99.90;;;14.05;100.00;101415.72;4831800;29;20233;-79
2022/10/02 11:06:06;;;;;;;0.00;0.00;;;14.00;99.90;;;14.11;100.00;101423.75;4868153;29;20235;-78
2022/10/02 11:08:58;;;;;;;0.00;0.00;;;14.00;99.90;;;14.09;100.00;101404.22;4856539;29;20220;-79
2022/10/02 11:12:28;;;;;;;0.00;0.00;;;14.00;99.90;;;14.20;100.00;101399.91;4855957;29;20651;-78
2022/10/02 11:15:30;;;;;;;0.00;0.00;;;14.10;99.90;;;14.15;100.00;101380.34;4795955;29;20239;-80
2022/10/02 11:18:01;;;;;;;0.00;0.00;;;14.10;99.90;;;14.11;100.00;101378.53;4870373;29;20216;-80
2022/10/02 11:21:00;;;;;;;0.00;0.00;;;14.10;99.90;;;14.20;100.00;101391.03;4856057;29;20213;-80
2022/10/02 11:24:12;;;;;;;0.00;0.00;;;14.10;99.90;;;14.15;100.00;101385.66;4866583;29;20232;-80
2022/10/02 11:26:59;;;;;;;0.00;0.00;;;14.10;99.90;;;14.17;100.00;101381.25;4857513;29;20236;-80
2022/10/02 11:30:09;;;;;;;0.00;0.00;;;14.10;99.90;;;14.26;100.00;101397.28;4856510;29;20224;-78
2022/10/02 11:33:12;;;;;;;0.00;0.00;;;14.20;99.90;;;14.12;100.00;101361.69;4859633;29;20221;-80
2022/10/02 11:36:41;;;;;;;0.00;0.00;;;14.10;99.90;;;14.14;100.00;101375.91;4860960;29;20248;-80